Tiffin, Ohio
Current Conditions -  °F | °C
As of 10:53 PM on Tuesday 21 Oct 2014 (Local Time) from KFDY Reporting Station
Overcast Overcast  
Wind Chill: 41°   Ceiling: 1900
Heat Index: 46°   Visibility: 10mi
Dew Point: 38°   Wind: 9mph
Humidity: 73%   Direction: 340°NNW
Pressure: 30.19"   Gusts: NA
Location:  41.12°N, 83.18°W
Report Text: KFDY 220253Z AUTO 34008KT 10SM OVC019 08/03 A3019 RMK AO2 SLP222 T00780033 51016
Loading
Personal Weather Stations






























Interactive Weather Map
Tropical Storm Tracking
New forecast layout! Learn more

10-Day Weather Forecast

Advertisements
Track Severe Weather on mobile